sensor_id;sensor_type;location;lat;lon;timestamp;temperature;humidity
49222;DHT22;35047;37.588;-122.048;2023-06-22T00:00:49;31.30;42.00
49222;DHT22;35047;37.588;-122.048;2023-06-22T00:03:15;31.20;42.70
49222;DHT22;35047;37.588;-122.048;2023-06-22T00:05:41;31.20;43.00
49222;DHT22;35047;37.588;-122.048;2023-06-22T00:08:07;31.30;43.90
49222;DHT22;35047;37.588;-122.048;2023-06-22T00:10:34;31.30;43.70
49222;DHT22;35047;37.588;-122.048;2023-06-22T00:13:00;31.30;43.80
49222;DHT22;35047;37.588;-122.048;2023-06-22T00:15:26;31.30;43.60
49222;DHT22;35047;37.588;-122.048;2023-06-22T00:17:53;30.80;43.30
49222;DHT22;35047;37.588;-122.048;2023-06-22T00:20:19;30.60;44.50
49222;DHT22;35047;37.588;-122.048;2023-06-22T00:22:45;30.30;45.20
49222;DHT22;35047;37.588;-122.048;2023-06-22T00:25:11;29.80;45.00
49222;DHT22;35047;37.588;-122.048;2023-06-22T00:27:37;29.50;45.20
49222;DHT22;35047;37.588;-122.048;2023-06-22T00:30:04;29.40;45.50
49222;DHT22;35047;37.588;-122.048;2023-06-22T00:32:30;29.20;46.10
49222;DHT22;35047;37.588;-122.048;2023-06-22T00:34:57;29.40;45.80
49222;DHT22;35047;37.588;-122.048;2023-06-22T00:37:23;29.80;45.50
49222;DHT22;35047;37.588;-122.048;2023-06-22T00:39:51;29.90;45.40
49222;DHT22;35047;37.588;-122.048;2023-06-22T00:42:17;29.90;45.40
49222;DHT22;35047;37.588;-122.048;2023-06-22T00:44:43;30.00;45.60
49222;DHT22;35047;37.588;-122.048;2023-06-22T00:47:14;29.90;45.10
49222;DHT22;35047;37.588;-122.048;2023-06-22T00:49:42;30.00;45.80
49222;DHT22;35047;37.588;-122.048;2023-06-22T00:52:08;29.90;45.30
49222;DHT22;35047;37.588;-122.048;2023-06-22T00:54:42;29.90;46.30
49222;DHT22;35047;37.588;-122.048;2023-06-22T00:57:11;29.90;46.50
49222;DHT22;35047;37.588;-122.048;2023-06-22T00:59:38;29.80;45.70
49222;DHT22;35047;37.588;-122.048;2023-06-22T01:02:04;29.70;45.30
49222;DHT22;35047;37.588;-122.048;2023-06-22T01:04:34;29.50;45.50
49222;DHT22;35047;37.588;-122.048;2023-06-22T01:07:13;29.30;46.30
49222;DHT22;35047;37.588;-122.048;2023-06-22T01:09:46;29.20;47.10
49222;DHT22;35047;37.588;-122.048;2023-06-22T01:12:16;29.10;46.60
49222;DHT22;35047;37.588;-122.048;2023-06-22T01:14:57;29.10;46.80
49222;DHT22;35047;37.588;-122.048;2023-06-22T01:17:26;28.30;47.20
49222;DHT22;35047;37.588;-122.048;2023-06-22T01:19:54;27.90;48.70
49222;DHT22;35047;37.588;-122.048;2023-06-22T01:22:22;27.80;48.90
49222;DHT22;35047;37.588;-122.048;2023-06-22T01:30:06;26.90;50.00
49222;DHT22;35047;37.588;-122.048;2023-06-22T01:32:36;26.60;50.40
49222;DHT22;35047;37.588;-122.048;2023-06-22T01:35:03;26.50;50.50
49222;DHT22;35047;37.588;-122.048;2023-06-22T01:37:30;26.40;51.20
49222;DHT22;35047;37.588;-122.048;2023-06-22T01:39:58;26.30;50.80
49222;DHT22;35047;37.588;-122.048;2023-06-22T01:42:24;26.10;51.50
49222;DHT22;35047;37.588;-122.048;2023-06-22T01:44:54;26.00;51.80
49222;DHT22;35047;37.588;-122.048;2023-06-22T01:47:24;25.90;51.90
49222;DHT22;35047;37.588;-122.048;2023-06-22T01:49:51;25.80;52.10
49222;DHT22;35047;37.588;-122.048;2023-06-22T01:52:17;25.70;52.20
49222;DHT22;35047;37.588;-122.048;2023-06-22T01:54:44;25.60;52.40
49222;DHT22;35047;37.588;-122.048;2023-06-22T01:57:10;25.60;52.80
49222;DHT22;35047;37.588;-122.048;2023-06-22T01:59:44;25.40;53.00
49222;DHT22;35047;37.588;-122.048;2023-06-22T02:02:13;25.30;53.20
49222;DHT22;35047;37.588;-122.048;2023-06-22T02:04:46;25.20;53.40
49222;DHT22;35047;37.588;-122.048;2023-06-22T02:07:14;25.10;53.90
49222;DHT22;35047;37.588;-122.048;2023-06-22T02:09:45;24.90;54.30
49222;DHT22;35047;37.588;-122.048;2023-06-22T02:12:12;24.80;54.60
49222;DHT22;35047;37.588;-122.048;2023-06-22T02:14:39;24.60;54.70
49222;DHT22;35047;37.588;-122.048;2023-06-22T02:17:05;24.50;55.30
49222;DHT22;35047;37.588;-122.048;2023-06-22T02:19:38;24.30;55.50
49222;DHT22;35047;37.588;-122.048;2023-06-22T02:22:04;24.20;55.80
49222;DHT22;35047;37.588;-122.048;2023-06-22T02:24:30;24.10;56.20
49222;DHT22;35047;37.588;-122.048;2023-06-22T02:26:58;24.10;56.60
49222;DHT22;35047;37.588;-122.048;2023-06-22T02:29:24;24.00;56.60
49222;DHT22;35047;37.588;-122.048;2023-06-22T02:31:50;23.80;56.70
49222;DHT22;35047;37.588;-122.048;2023-06-22T02:34:17;23.70;57.00
49222;DHT22;35047;37.588;-122.048;2023-06-22T02:36:47;23.60;57.20
49222;DHT22;35047;37.588;-122.048;2023-06-22T02:39:21;23.60;57.70
49222;DHT22;35047;37.588;-122.048;2023-06-22T02:41:48;23.50;57.90
49222;DHT22;35047;37.588;-122.048;2023-06-22T02:44:15;23.40;57.90
49222;DHT22;35047;37.588;-122.048;2023-06-22T02:46:41;23.30;58.10
49222;DHT22;35047;37.588;-122.048;2023-06-22T02:49:07;23.20;58.30
49222;DHT22;35047;37.588;-122.048;2023-06-22T02:51:34;23.20;58.60
49222;DHT22;35047;37.588;-122.048;2023-06-22T02:54:00;23.20;58.60
49222;DHT22;35047;37.588;-122.048;2023-06-22T02:56:28;23.10;58.80
49222;DHT22;35047;37.588;-122.048;2023-06-22T02:58:56;23.10;58.90
49222;DHT22;35047;37.588;-122.048;2023-06-22T03:01:26;22.90;59.10
49222;DHT22;35047;37.588;-122.048;2023-06-22T03:03:53;22.80;59.50
49222;DHT22;35047;37.588;-122.048;2023-06-22T03:06:20;22.80;59.70
49222;DHT22;35047;37.588;-122.048;2023-06-22T03:08:49;22.70;59.90
49222;DHT22;35047;37.588;-122.048;2023-06-22T03:11:15;22.70;60.20
49222;DHT22;35047;37.588;-122.048;2023-06-22T03:13:41;22.60;60.10
49222;DHT22;35047;37.588;-122.048;2023-06-22T03:16:08;22.60;60.30
49222;DHT22;35047;37.588;-122.048;2023-06-22T03:18:34;22.50;60.40
49222;DHT22;35047;37.588;-122.048;2023-06-22T03:21:00;22.40;61.00
49222;DHT22;35047;37.588;-122.048;2023-06-22T03:23:27;22.30;61.20
49222;DHT22;35047;37.588;-122.048;2023-06-22T03:25:53;22.20;61.40
49222;DHT22;35047;37.588;-122.048;2023-06-22T03:28:22;22.00;62.50
49222;DHT22;35047;37.588;-122.048;2023-06-22T03:30:48;21.90;62.90
49222;DHT22;35047;37.588;-122.048;2023-06-22T03:33:14;21.90;62.90
49222;DHT22;35047;37.588;-122.048;2023-06-22T03:35:40;21.80;63.00
49222;DHT22;35047;37.588;-122.048;2023-06-22T03:38:07;21.70;63.20
49222;DHT22;35047;37.588;-122.048;2023-06-22T03:40:33;21.60;63.30
49222;DHT22;35047;37.588;-122.048;2023-06-22T03:42:59;21.60;63.30
49222;DHT22;35047;37.588;-122.048;2023-06-22T03:45:25;21.60;63.10
49222;DHT22;35047;37.588;-122.048;2023-06-22T03:47:51;21.50;63.60
49222;DHT22;35047;37.588;-122.048;2023-06-22T03:50:18;21.40;63.80
49222;DHT22;35047;37.588;-122.048;2023-06-22T03:52:46;21.40;63.70
49222;DHT22;35047;37.588;-122.048;2023-06-22T03:55:12;21.40;63.40
49222;DHT22;35047;37.588;-122.048;2023-06-22T03:57:38;21.40;63.50
49222;DHT22;35047;37.588;-122.048;2023-06-22T04:00:04;21.30;63.80
49222;DHT22;35047;37.588;-122.048;2023-06-22T04:02:31;21.30;64.00
49222;DHT22;35047;37.588;-122.048;2023-06-22T04:04:57;21.30;64.20
49222;DHT22;35047;37.588;-122.048;2023-06-22T04:07:23;21.20;64.50
49222;DHT22;35047;37.588;-122.048;2023-06-22T04:09:50;21.20;64.30
49222;DHT22;35047;37.588;-122.048;2023-06-22T04:12:16;21.10;64.10
49222;DHT22;35047;37.588;-122.048;2023-06-22T04:14:43;21.10;64.30
49222;DHT22;35047;37.588;-122.048;2023-06-22T04:17:09;21.10;64.30
49222;DHT22;35047;37.588;-122.048;2023-06-22T04:19:35;21.10;64.40
49222;DHT22;35047;37.588;-122.048;2023-06-22T04:22:01;21.00;64.70
49222;DHT22;35047;37.588;-122.048;2023-06-22T04:24:27;21.00;64.80
49222;DHT22;35047;37.588;-122.048;2023-06-22T04:26:53;20.90;65.10
49222;DHT22;35047;37.588;-122.048;2023-06-22T04:29:21;21.00;65.10
49222;DHT22;35047;37.588;-122.048;2023-06-22T04:31:58;21.00;65.30
49222;DHT22;35047;37.588;-122.048;2023-06-22T04:34:30;20.90;65.30
49222;DHT22;35047;37.588;-122.048;2023-06-22T04:36:57;20.90;65.50
49222;DHT22;35047;37.588;-122.048;2023-06-22T04:39:23;20.90;65.50
49222;DHT22;35047;37.588;-122.048;2023-06-22T04:41:49;20.90;65.70
49222;DHT22;35047;37.588;-122.048;2023-06-22T04:44:19;20.80;66.00
49222;DHT22;35047;37.588;-122.048;2023-06-22T04:46:52;20.80;66.00
49222;DHT22;35047;37.588;-122.048;2023-06-22T04:49:26;20.80;66.00
49222;DHT22;35047;37.588;-122.048;2023-06-22T04:52:05;20.80;66.00
49222;DHT22;35047;37.588;-122.048;2023-06-22T04:54:32;20.80;65.90
49222;DHT22;35047;37.588;-122.048;2023-06-22T04:56:59;20.80;65.90
49222;DHT22;35047;37.588;-122.048;2023-06-22T04:59:26;20.80;66.00
49222;DHT22;35047;37.588;-122.048;2023-06-22T05:02:00;20.70;65.90
49222;DHT22;35047;37.588;-122.048;2023-06-22T05:04:27;20.70;66.00
49222;DHT22;35047;37.588;-122.048;2023-06-22T05:06:53;20.70;65.90
49222;DHT22;35047;37.588;-122.048;2023-06-22T05:09:20;20.70;66.30
49222;DHT22;35047;37.588;-122.048;2023-06-22T05:11:46;20.70;66.50
49222;DHT22;35047;37.588;-122.048;2023-06-22T05:14:13;20.70;66.50
49222;DHT22;35047;37.588;-122.048;2023-06-22T05:16:41;20.60;67.10
49222;DHT22;35047;37.588;-122.048;2023-06-22T05:19:07;20.70;67.20
49222;DHT22;35047;37.588;-122.048;2023-06-22T05:21:34;20.60;67.10
49222;DHT22;35047;37.588;-122.048;2023-06-22T05:24:00;20.60;67.00
49222;DHT22;35047;37.588;-122.048;2023-06-22T05:26:28;20.60;67.00
49222;DHT22;35047;37.588;-122.048;2023-06-22T05:28:55;20.50;66.90
49222;DHT22;35047;37.588;-122.048;2023-06-22T05:31:21;20.40;67.00
49222;DHT22;35047;37.588;-122.048;2023-06-22T05:33:49;20.40;67.20
49222;DHT22;35047;37.588;-122.048;2023-06-22T05:36:15;20.30;67.10
49222;DHT22;35047;37.588;-122.048;2023-06-22T05:38:41;20.30;67.00
49222;DHT22;35047;37.588;-122.048;2023-06-22T05:41:08;20.30;67.20
49222;DHT22;35047;37.588;-122.048;2023-06-22T05:43:34;20.30;67.10
49222;DHT22;35047;37.588;-122.048;2023-06-22T05:46:00;20.30;67.00
49222;DHT22;35047;37.588;-122.048;2023-06-22T05:48:27;20.30;67.00
49222;DHT22;35047;37.588;-122.048;2023-06-22T05:50:53;20.20;67.00
49222;DHT22;35047;37.588;-122.048;2023-06-22T05:53:20;20.20;67.00
49222;DHT22;35047;37.588;-122.048;2023-06-22T05:55:46;20.20;66.90
49222;DHT22;35047;37.588;-122.048;2023-06-22T05:58:12;20.20;67.10
49222;DHT22;35047;37.588;-122.048;2023-06-22T06:00:41;20.20;67.20
49222;DHT22;35047;37.588;-122.048;2023-06-22T06:03:09;20.10;67.20
49222;DHT22;35047;37.588;-122.048;2023-06-22T06:05:35;20.10;67.30
49222;DHT22;35047;37.588;-122.048;2023-06-22T06:08:02;20.10;67.40
49222;DHT22;35047;37.588;-122.048;2023-06-22T06:10:30;20.10;67.60
49222;DHT22;35047;37.588;-122.048;2023-06-22T06:12:56;20.10;67.70
49222;DHT22;35047;37.588;-122.048;2023-06-22T06:15:22;20.00;68.30
49222;DHT22;35047;37.588;-122.048;2023-06-22T06:17:49;20.00;67.80
49222;DHT22;35047;37.588;-122.048;2023-06-22T06:20:17;20.00;67.90
49222;DHT22;35047;37.588;-122.048;2023-06-22T06:22:43;20.00;67.90
49222;DHT22;35047;37.588;-122.048;2023-06-22T06:25:09;19.90;68.20
49222;DHT22;35047;37.588;-122.048;2023-06-22T06:27:42;19.90;69.00
49222;DHT22;35047;37.588;-122.048;2023-06-22T06:30:09;19.90;68.40
49222;DHT22;35047;37.588;-122.048;2023-06-22T06:32:35;19.80;68.30
49222;DHT22;35047;37.588;-122.048;2023-06-22T06:35:01;19.80;68.40
49222;DHT22;35047;37.588;-122.048;2023-06-22T06:37:27;19.80;68.40
49222;DHT22;35047;37.588;-122.048;2023-06-22T06:39:53;19.80;68.30
49222;DHT22;35047;37.588;-122.048;2023-06-22T06:42:21;19.80;68.40
49222;DHT22;35047;37.588;-122.048;2023-06-22T06:44:49;19.70;68.60
49222;DHT22;35047;37.588;-122.048;2023-06-22T06:47:15;19.70;68.80
49222;DHT22;35047;37.588;-122.048;2023-06-22T06:49:42;19.70;68.80
49222;DHT22;35047;37.588;-122.048;2023-06-22T06:52:08;19.60;68.90
49222;DHT22;35047;37.588;-122.048;2023-06-22T06:54:34;19.60;69.00
49222;DHT22;35047;37.588;-122.048;2023-06-22T06:57:01;19.60;69.00
49222;DHT22;35047;37.588;-122.048;2023-06-22T06:59:28;19.60;69.30
49222;DHT22;35047;37.588;-122.048;2023-06-22T07:01:55;19.50;69.20
49222;DHT22;35047;37.588;-122.048;2023-06-22T07:04:21;19.50;69.20
49222;DHT22;35047;37.588;-122.048;2023-06-22T07:06:47;19.50;69.20
49222;DHT22;35047;37.588;-122.048;2023-06-22T07:09:13;19.50;69.10
49222;DHT22;35047;37.588;-122.048;2023-06-22T07:11:40;19.50;69.20
49222;DHT22;35047;37.588;-122.048;2023-06-22T07:14:07;19.50;69.10
49222;DHT22;35047;37.588;-122.048;2023-06-22T07:16:33;19.50;69.90
49222;DHT22;35047;37.588;-122.048;2023-06-22T07:18:59;19.50;69.40
49222;DHT22;35047;37.588;-122.048;2023-06-22T07:21:25;19.50;69.40
49222;DHT22;35047;37.588;-122.048;2023-06-22T07:23:52;19.50;70.10
49222;DHT22;35047;37.588;-122.048;2023-06-22T07:26:18;19.50;69.40
49222;DHT22;35047;37.588;-122.048;2023-06-22T07:28:44;19.50;69.40
49222;DHT22;35047;37.588;-122.048;2023-06-22T07:31:10;19.50;69.30
49222;DHT22;35047;37.588;-122.048;2023-06-22T07:33:36;19.40;69.30
49222;DHT22;35047;37.588;-122.048;2023-06-22T07:36:02;19.40;69.40
49222;DHT22;35047;37.588;-122.048;2023-06-22T07:38:33;19.40;69.50
49222;DHT22;35047;37.588;-122.048;2023-06-22T07:41:00;19.30;69.60
49222;DHT22;35047;37.588;-122.048;2023-06-22T07:43:27;19.30;69.50
49222;DHT22;35047;37.588;-122.048;2023-06-22T07:45:58;19.30;69.60
49222;DHT22;35047;37.588;-122.048;2023-06-22T07:48:24;19.30;69.70
49222;DHT22;35047;37.588;-122.048;2023-06-22T07:50:51;19.20;70.00
49222;DHT22;35047;37.588;-122.048;2023-06-22T07:53:18;19.30;70.10
49222;DHT22;35047;37.588;-122.048;2023-06-22T07:55:44;19.20;70.30
49222;DHT22;35047;37.588;-122.048;2023-06-22T07:58:10;19.30;70.30
49222;DHT22;35047;37.588;-122.048;2023-06-22T08:00:36;19.30;70.50
49222;DHT22;35047;37.588;-122.048;2023-06-22T08:03:02;19.30;70.50
49222;DHT22;35047;37.588;-122.048;2023-06-22T08:05:30;19.30;70.60
49222;DHT22;35047;37.588;-122.048;2023-06-22T08:07:57;19.30;70.60
49222;DHT22;35047;37.588;-122.048;2023-06-22T08:10:23;19.50;70.10
49222;DHT22;35047;37.588;-122.048;2023-06-22T08:12:49;19.60;69.50
49222;DHT22;35047;37.588;-122.048;2023-06-22T08:15:15;19.60;69.60
49222;DHT22;35047;37.588;-122.048;2023-06-22T08:17:41;19.60;69.70
49222;DHT22;35047;37.588;-122.048;2023-06-22T08:20:07;19.60;69.80
49222;DHT22;35047;37.588;-122.048;2023-06-22T08:22:37;19.50;69.90
49222;DHT22;35047;37.588;-122.048;2023-06-22T08:25:04;19.50;70.30
49222;DHT22;35047;37.588;-122.048;2023-06-22T08:27:30;19.60;70.30
49222;DHT22;35047;37.588;-122.048;2023-06-22T08:29:59;19.50;70.50
49222;DHT22;35047;37.588;-122.048;2023-06-22T08:32:27;19.50;71.20
49222;DHT22;35047;37.588;-122.048;2023-06-22T08:34:56;19.50;70.40
49222;DHT22;35047;37.588;-122.048;2023-06-22T08:37:24;19.50;70.60
49222;DHT22;35047;37.588;-122.048;2023-06-22T08:39:59;19.50;70.50
49222;DHT22;35047;37.588;-122.048;2023-06-22T08:42:26;19.50;70.80
49222;DHT22;35047;37.588;-122.048;2023-06-22T08:44:52;19.50;70.70
49222;DHT22;35047;37.588;-122.048;2023-06-22T08:47:19;19.50;70.60
49222;DHT22;35047;37.588;-122.048;2023-06-22T08:49:45;19.50;70.50
49222;DHT22;35047;37.588;-122.048;2023-06-22T08:52:12;19.50;70.60
49222;DHT22;35047;37.588;-122.048;2023-06-22T08:54:38;19.50;70.70
49222;DHT22;35047;37.588;-122.048;2023-06-22T08:57:05;19.50;70.70
49222;DHT22;35047;37.588;-122.048;2023-06-22T08:59:31;19.50;70.70
49222;DHT22;35047;37.588;-122.048;2023-06-22T09:01:57;19.50;70.50
49222;DHT22;35047;37.588;-122.048;2023-06-22T09:04:23;19.50;70.40
49222;DHT22;35047;37.588;-122.048;2023-06-22T09:06:50;19.50;70.30
49222;DHT22;35047;37.588;-122.048;2023-06-22T09:09:17;19.50;70.50
49222;DHT22;35047;37.588;-122.048;2023-06-22T09:11:44;19.50;70.40
49222;DHT22;35047;37.588;-122.048;2023-06-22T09:14:10;19.50;70.30
49222;DHT22;35047;37.588;-122.048;2023-06-22T09:16:37;19.50;70.20
49222;DHT22;35047;37.588;-122.048;2023-06-22T09:19:03;19.60;70.20
49222;DHT22;35047;37.588;-122.048;2023-06-22T09:21:30;19.50;70.00
49222;DHT22;35047;37.588;-122.048;2023-06-22T09:23:56;19.50;70.00
49222;DHT22;35047;37.588;-122.048;2023-06-22T09:26:22;19.50;70.10
49222;DHT22;35047;37.588;-122.048;2023-06-22T09:28:49;19.50;70.10
49222;DHT22;35047;37.588;-122.048;2023-06-22T09:31:15;19.60;70.20
49222;DHT22;35047;37.588;-122.048;2023-06-22T09:33:42;19.60;69.90
49222;DHT22;35047;37.588;-122.048;2023-06-22T09:36:08;19.50;70.10
49222;DHT22;35047;37.588;-122.048;2023-06-22T09:38:38;19.50;69.90
49222;DHT22;35047;37.588;-122.048;2023-06-22T09:41:04;19.60;70.10
49222;DHT22;35047;37.588;-122.048;2023-06-22T09:43:30;19.60;70.20
49222;DHT22;35047;37.588;-122.048;2023-06-22T09:45:57;19.60;69.90
49222;DHT22;35047;37.588;-122.048;2023-06-22T09:48:23;19.60;70.00
49222;DHT22;35047;37.588;-122.048;2023-06-22T09:50:49;19.60;69.90
49222;DHT22;35047;37.588;-122.048;2023-06-22T09:53:15;19.60;70.10
49222;DHT22;35047;37.588;-122.048;2023-06-22T09:55:41;19.60;70.20
49222;DHT22;35047;37.588;-122.048;2023-06-22T09:58:07;19.60;70.30
49222;DHT22;35047;37.588;-122.048;2023-06-22T10:00:35;19.60;70.10
49222;DHT22;35047;37.588;-122.048;2023-06-22T10:03:01;19.60;69.90
49222;DHT22;35047;37.588;-122.048;2023-06-22T10:05:27;19.60;70.00
49222;DHT22;35047;37.588;-122.048;2023-06-22T10:07:53;19.60;70.00
49222;DHT22;35047;37.588;-122.048;2023-06-22T10:10:19;19.60;69.70
49222;DHT22;35047;37.588;-122.048;2023-06-22T10:12:46;19.60;69.80
49222;DHT22;35047;37.588;-122.048;2023-06-22T10:15:13;19.60;69.90
49222;DHT22;35047;37.588;-122.048;2023-06-22T10:17:39;19.60;69.90
49222;DHT22;35047;37.588;-122.048;2023-06-22T10:20:06;19.70;69.90
49222;DHT22;35047;37.588;-122.048;2023-06-22T10:22:38;19.70;69.40
49222;DHT22;35047;37.588;-122.048;2023-06-22T10:25:04;19.70;69.50
49222;DHT22;35047;37.588;-122.048;2023-06-22T10:27:30;19.70;69.30
49222;DHT22;35047;37.588;-122.048;2023-06-22T10:29:57;19.70;69.00
49222;DHT22;35047;37.588;-122.048;2023-06-22T10:32:23;19.60;69.20
49222;DHT22;35047;37.588;-122.048;2023-06-22T10:34:49;19.60;69.00
49222;DHT22;35047;37.588;-122.048;2023-06-22T10:37:15;19.50;69.40
49222;DHT22;35047;37.588;-122.048;2023-06-22T10:39:41;19.50;69.20
49222;DHT22;35047;37.588;-122.048;2023-06-22T10:42:07;19.50;69.30
49222;DHT22;35047;37.588;-122.048;2023-06-22T10:44:33;19.50;69.40
49222;DHT22;35047;37.588;-122.048;2023-06-22T10:46:59;19.50;69.50
49222;DHT22;35047;37.588;-122.048;2023-06-22T10:49:25;19.50;69.80
49222;DHT22;35047;37.588;-122.048;2023-06-22T10:51:53;19.50;70.00
49222;DHT22;35047;37.588;-122.048;2023-06-22T10:54:19;19.50;69.90
49222;DHT22;35047;37.588;-122.048;2023-06-22T10:56:45;19.50;70.00
49222;DHT22;35047;37.588;-122.048;2023-06-22T10:59:11;19.50;69.90
49222;DHT22;35047;37.588;-122.048;2023-06-22T11:01:37;19.50;70.20
49222;DHT22;35047;37.588;-122.048;2023-06-22T11:04:03;19.40;70.40
49222;DHT22;35047;37.588;-122.048;2023-06-22T11:06:30;19.40;70.50
49222;DHT22;35047;37.588;-122.048;2023-06-22T11:08:56;19.40;70.60
49222;DHT22;35047;37.588;-122.048;2023-06-22T11:11:22;19.40;70.40
49222;DHT22;35047;37.588;-122.048;2023-06-22T11:13:48;19.40;70.80
49222;DHT22;35047;37.588;-122.048;2023-06-22T11:16:14;19.50;70.90
49222;DHT22;35047;37.588;-122.048;2023-06-22T11:18:40;19.50;70.70
49222;DHT22;35047;37.588;-122.048;2023-06-22T11:21:06;19.50;70.60
49222;DHT22;35047;37.588;-122.048;2023-06-22T11:23:32;19.50;70.40
49222;DHT22;35047;37.588;-122.048;2023-06-22T11:25:58;19.50;70.60
49222;DHT22;35047;37.588;-122.048;2023-06-22T11:28:24;19.50;70.50
49222;DHT22;35047;37.588;-122.048;2023-06-22T11:30:51;19.60;70.60
49222;DHT22;35047;37.588;-122.048;2023-06-22T11:33:17;19.60;70.10
49222;DHT22;35047;37.588;-122.048;2023-06-22T11:35:44;19.60;70.10
49222;DHT22;35047;37.588;-122.048;2023-06-22T11:38:10;19.60;70.30
49222;DHT22;35047;37.588;-122.048;2023-06-22T11:40:36;19.60;70.30
49222;DHT22;35047;37.588;-122.048;2023-06-22T11:43:02;19.60;70.10
49222;DHT22;35047;37.588;-122.048;2023-06-22T11:45:28;19.60;69.50
49222;DHT22;35047;37.588;-122.048;2023-06-22T11:47:54;19.60;69.60
49222;DHT22;35047;37.588;-122.048;2023-06-22T11:50:20;19.50;70.00
49222;DHT22;35047;37.588;-122.048;2023-06-22T11:52:46;19.50;70.00
49222;DHT22;35047;37.588;-122.048;2023-06-22T11:55:12;19.50;70.60
49222;DHT22;35047;37.588;-122.048;2023-06-22T11:57:51;19.60;70.00
49222;DHT22;35047;37.588;-122.048;2023-06-22T12:00:18;19.60;69.50
49222;DHT22;35047;37.588;-122.048;2023-06-22T12:02:44;19.60;69.30
49222;DHT22;35047;37.588;-122.048;2023-06-22T12:05:10;19.60;69.80
49222;DHT22;35047;37.588;-122.048;2023-06-22T12:07:37;19.60;70.10
49222;DHT22;35047;37.588;-122.048;2023-06-22T12:10:04;19.60;69.70
49222;DHT22;35047;37.588;-122.048;2023-06-22T12:12:30;19.60;69.70
49222;DHT22;35047;37.588;-122.048;2023-06-22T12:14:56;19.70;69.50
49222;DHT22;35047;37.588;-122.048;2023-06-22T12:17:22;19.70;69.30
49222;DHT22;35047;37.588;-122.048;2023-06-22T12:19:48;19.70;69.50
49222;DHT22;35047;37.588;-122.048;2023-06-22T12:22:15;19.70;69.30
49222;DHT22;35047;37.588;-122.048;2023-06-22T12:24:41;19.70;69.60
49222;DHT22;35047;37.588;-122.048;2023-06-22T12:27:07;19.70;69.20
49222;DHT22;35047;37.588;-122.048;2023-06-22T12:29:34;19.70;69.20
49222;DHT22;35047;37.588;-122.048;2023-06-22T12:32:00;19.80;69.00
49222;DHT22;35047;37.588;-122.048;2023-06-22T12:34:26;19.80;69.10
49222;DHT22;35047;37.588;-122.048;2023-06-22T12:36:53;19.80;69.20
49222;DHT22;35047;37.588;-122.048;2023-06-22T12:39:20;19.90;69.10
49222;DHT22;35047;37.588;-122.048;2023-06-22T12:41:46;19.80;69.10
49222;DHT22;35047;37.588;-122.048;2023-06-22T12:44:12;19.90;69.10
49222;DHT22;35047;37.588;-122.048;2023-06-22T12:46:38;19.90;68.50
49222;DHT22;35047;37.588;-122.048;2023-06-22T12:49:04;19.80;68.80
49222;DHT22;35047;37.588;-122.048;2023-06-22T12:51:30;19.80;68.30
49222;DHT22;35047;37.588;-122.048;2023-06-22T12:53:57;19.80;68.40
49222;DHT22;35047;37.588;-122.048;2023-06-22T12:56:23;19.80;68.30
49222;DHT22;35047;37.588;-122.048;2023-06-22T12:58:49;19.80;68.40
49222;DHT22;35047;37.588;-122.048;2023-06-22T13:01:15;19.90;68.30
49222;DHT22;35047;37.588;-122.048;2023-06-22T13:03:43;19.90;68.20
49222;DHT22;35047;37.588;-122.048;2023-06-22T13:06:09;19.80;68.60
49222;DHT22;35047;37.588;-122.048;2023-06-22T13:08:35;19.90;68.50
49222;DHT22;35047;37.588;-122.048;2023-06-22T13:11:02;19.90;67.80
49222;DHT22;35047;37.588;-122.048;2023-06-22T13:13:28;19.90;68.00
49222;DHT22;35047;37.588;-122.048;2023-06-22T13:15:54;19.90;67.80
49222;DHT22;35047;37.588;-122.048;2023-06-22T13:18:20;19.90;67.90
49222;DHT22;35047;37.588;-122.048;2023-06-22T13:20:47;19.90;67.90
49222;DHT22;35047;37.588;-122.048;2023-06-22T13:23:14;19.90;67.90
49222;DHT22;35047;37.588;-122.048;2023-06-22T13:25:40;19.90;68.40
49222;DHT22;35047;37.588;-122.048;2023-06-22T13:28:06;19.90;68.50
49222;DHT22;35047;37.588;-122.048;2023-06-22T13:30:32;19.90;68.20
49222;DHT22;35047;37.588;-122.048;2023-06-22T13:32:58;20.00;67.90
49222;DHT22;35047;37.588;-122.048;2023-06-22T13:35:24;20.00;67.10
49222;DHT22;35047;37.588;-122.048;2023-06-22T13:37:50;20.00;67.00
49222;DHT22;35047;37.588;-122.048;2023-06-22T13:40:16;19.90;67.30
49222;DHT22;35047;37.588;-122.048;2023-06-22T13:42:42;20.00;67.50
49222;DHT22;35047;37.588;-122.048;2023-06-22T13:45:09;20.00;67.30
49222;DHT22;35047;37.588;-122.048;2023-06-22T13:47:35;20.00;66.90
49222;DHT22;35047;37.588;-122.048;2023-06-22T13:50:01;20.10;66.80
49222;DHT22;35047;37.588;-122.048;2023-06-22T13:52:27;20.10;66.90
49222;DHT22;35047;37.588;-122.048;2023-06-22T13:54:53;20.10;66.60
49222;DHT22;35047;37.588;-122.048;2023-06-22T13:57:19;20.20;66.80
49222;DHT22;35047;37.588;-122.048;2023-06-22T13:59:46;20.10;67.10
49222;DHT22;35047;37.588;-122.048;2023-06-22T14:02:12;20.10;66.90
49222;DHT22;35047;37.588;-122.048;2023-06-22T14:04:38;20.10;67.10
49222;DHT22;35047;37.588;-122.048;2023-06-22T14:07:04;20.10;66.80
49222;DHT22;35047;37.588;-122.048;2023-06-22T14:09:30;20.10;67.40
49222;DHT22;35047;37.588;-122.048;2023-06-22T14:11:56;20.10;67.10
49222;DHT22;35047;37.588;-122.048;2023-06-22T14:14:22;20.10;67.30
49222;DHT22;35047;37.588;-122.048;2023-06-22T14:16:49;20.10;67.20
49222;DHT22;35047;37.588;-122.048;2023-06-22T14:19:18;20.10;67.10
49222;DHT22;35047;37.588;-122.048;2023-06-22T14:21:44;20.20;67.00
49222;DHT22;35047;37.588;-122.048;2023-06-22T14:24:10;20.20;67.00
49222;DHT22;35047;37.588;-122.048;2023-06-22T14:26:36;20.20;67.00
49222;DHT22;35047;37.588;-122.048;2023-06-22T14:29:02;20.30;66.40
49222;DHT22;35047;37.588;-122.048;2023-06-22T14:31:29;20.30;66.80
49222;DHT22;35047;37.588;-122.048;2023-06-22T14:33:55;20.30;66.80
49222;DHT22;35047;37.588;-122.048;2023-06-22T14:36:21;20.30;66.70
49222;DHT22;35047;37.588;-122.048;2023-06-22T14:38:47;20.40;66.50
49222;DHT22;35047;37.588;-122.048;2023-06-22T14:41:13;20.30;65.60
49222;DHT22;35047;37.588;-122.048;2023-06-22T14:43:43;20.30;65.60
49222;DHT22;35047;37.588;-122.048;2023-06-22T14:46:10;20.30;65.30
49222;DHT22;35047;37.588;-122.048;2023-06-22T14:48:36;20.30;64.80
49222;DHT22;35047;37.588;-122.048;2023-06-22T14:51:02;20.30;65.40